createdAt,value
2022-09-03T00:00:36.963Z,3.00
2022-09-03T00:10:53.177Z,2.88
2022-09-03T00:21:09.553Z,4.03
2022-09-03T00:31:25.682Z,3.80
2022-09-03T00:41:42.490Z,3.80
2022-09-03T00:51:59.904Z,3.67
2022-09-03T01:02:18.903Z,5.13
2022-09-03T01:12:36.264Z,5.15
2022-09-03T01:23:26.637Z,4.55
2022-09-03T01:33:41.966Z,3.90
2022-09-03T01:44:00.168Z,3.72
2022-09-03T01:54:41.058Z,3.85
2022-09-03T02:05:02.172Z,4.07
2022-09-03T02:15:15.322Z,4.60
2022-09-03T02:25:22.543Z,4.43
2022-09-03T02:35:31.332Z,4.38
2022-09-03T02:45:41.107Z,4.72
2022-09-03T02:55:50.050Z,4.70
2022-09-03T03:05:59.303Z,4.45
2022-09-03T03:16:09.924Z,4.78
2022-09-03T03:26:20.152Z,4.85
2022-09-03T03:36:30.433Z,5.43
2022-09-03T03:46:38.786Z,4.70
2022-09-03T03:56:55.433Z,5.18
2022-09-03T04:07:03.317Z,5.50
2022-09-03T04:17:12.151Z,5.90
2022-09-03T04:27:49.791Z,6.63
2022-09-03T04:38:07.958Z,6.82
2022-09-03T05:11:40.055Z,7.22
2022-09-03T05:34:29.695Z,7.45
2022-09-03T05:44:44.071Z,7.50
2022-09-03T05:55:03.501Z,7.40
2022-09-03T06:05:14.866Z,7.05
2022-09-03T06:15:27.183Z,7.93
2022-09-03T06:25:35.497Z,9.30
2022-09-03T06:35:45.734Z,9.35
2022-09-03T06:46:08.455Z,7.50
2022-09-03T07:18:26.268Z,8.15
2022-09-03T07:41:29.365Z,6.80
2022-09-03T08:14:35.740Z,5.60
2022-09-03T08:24:57.336Z,5.20
2022-09-03T08:35:20.315Z,4.63
2022-09-03T08:56:37.770Z,4.20
2022-09-03T09:06:53.324Z,3.92
2022-09-03T10:18:54.217Z,2.83
2022-09-03T10:30:07.648Z,2.90
2022-09-03T10:53:36.617Z,2.88
2022-09-03T11:28:13.070Z,2.42
2022-09-03T11:51:25.714Z,2.60
2022-09-03T14:43:00.600Z,1.00
2022-09-03T15:18:24.816Z,0.88
2022-09-03T15:29:27.028Z,1.00
2022-09-03T16:15:47.712Z,1.08
2022-09-03T16:26:01.516Z,0.85
2022-09-03T16:36:26.591Z,1.50
2022-09-03T16:59:39.072Z,1.80
2022-09-03T17:26:22.960Z,1.70
2022-09-03T17:48:28.853Z,1.40
2022-09-03T17:59:09.531Z,1.42
2022-09-03T18:09:29.656Z,1.17
2022-09-03T18:19:59.222Z,1.23
2022-09-03T20:17:11.304Z,1.10
2022-09-03T20:27:29.603Z,1.42
2022-09-03T20:38:01.595Z,1.20
2022-09-03T20:48:26.277Z,1.30
2022-09-03T20:59:04.520Z,1.40
2022-09-03T21:10:23.457Z,1.50
2022-09-03T21:21:48.948Z,1.40
2022-09-03T21:32:14.814Z,1.60
2022-09-03T21:42:29.626Z,1.35
2022-09-03T21:52:45.143Z,1.65
2022-09-03T22:02:55.802Z,1.70
2022-09-03T22:13:15.796Z,1.30
2022-09-03T22:23:43.889Z,1.23
2022-09-03T22:33:59.481Z,1.30
2022-09-03T22:44:20.664Z,1.60
2022-09-03T22:54:47.213Z,1.40
2022-09-03T23:05:02.329Z,1.23
2022-09-03T23:15:12.871Z,1.00
2022-09-03T23:25:24.804Z,1.00
2022-09-03T23:35:36.720Z,1.10
2022-09-03T23:45:51.946Z,1.00
2022-09-03T23:56:21.080Z,0.90
